Time;durP1;ratioP1;P1;durP2;ratioP2;P2;SDS_P1;SDS_P2;PMS_P1;PMS_P2;Temp;Humidity;BMP_temperature;BMP_pressure;BME280_temperature;BME280_humidity;BME280_pressure;Samples;Min_cycle;Max_cycle;Signal;HPM_P1;HPM_P2
2023/05/15 00:00:24;;;;;;;12.00;9.13;;;;;;;11.26;100.00;94601.84;5090228;28;20204;-77
2023/05/15 00:02:51;;;;;;;12.60;9.23;;;;;;;11.28;100.00;94611.00;5089558;28;20221;-77
2023/05/15 00:05:20;;;;;;;13.63;9.93;;;;;;;11.30;100.00;94611.59;5088725;28;20236;-76
2023/05/15 00:07:47;;;;;;;16.17;9.40;;;;;;;11.42;100.00;94588.19;5088916;28;20236;-76
2023/05/15 00:10:14;;;;;;;11.57;8.77;;;;;;;11.42;100.00;94600.41;5089252;28;20197;-76
2023/05/15 00:12:41;;;;;;;12.10;8.70;;;;;;;11.42;100.00;94614.22;5088783;28;20197;-75
2023/05/15 00:15:09;;;;;;;10.23;7.67;;;;;;;11.41;100.00;94633.44;5089123;28;20205;-76
2023/05/15 00:17:35;;;;;;;10.97;8.27;;;;;;;11.45;100.00;94637.19;5085823;28;20210;-76
2023/05/15 00:20:03;;;;;;;10.17;8.30;;;;;;;11.44;100.00;94633.00;5088920;28;20263;-76
2023/05/15 00:22:32;;;;;;;13.57;7.70;;;;;;;11.35;100.00;94627.31;5089250;28;20323;-76
2023/05/15 00:24:58;;;;;;;10.93;8.20;;;;;;;11.00;100.00;94625.63;5088754;28;20212;-76
2023/05/15 00:27:26;;;;;;;10.33;8.20;;;;;;;10.77;100.00;94628.94;5088261;28;20224;-75
2023/05/15 00:29:53;;;;;;;11.50;8.53;;;;;;;10.71;100.00;94622.78;5088464;28;20205;-75
2023/05/15 00:32:20;;;;;;;12.20;9.07;;;;;;;10.74;100.00;94632.75;5088811;28;20204;-76
2023/05/15 00:34:47;;;;;;;12.43;9.50;;;;;;;10.83;100.00;94651.44;5089344;28;20281;-77
2023/05/15 00:37:13;;;;;;;13.60;9.10;;;;;;;10.96;100.00;94629.69;5088635;28;20663;-76
2023/05/15 00:39:42;;;;;;;11.80;9.00;;;;;;;10.88;100.00;94628.19;5089088;28;20208;-77
2023/05/15 00:42:10;;;;;;;11.43;8.53;;;;;;;10.68;100.00;94619.84;5089070;28;20228;-75
2023/05/15 00:44:40;;;;;;;11.77;9.00;;;;;;;10.46;100.00;94618.72;5088638;28;20211;-75
2023/05/15 00:47:07;;;;;;;22.90;8.90;;;;;;;10.41;100.00;94634.97;5085054;28;20205;-76
2023/05/15 00:49:36;;;;;;;12.00;9.33;;;;;;;10.52;100.00;94631.63;5088783;28;20205;-76
2023/05/15 00:52:04;;;;;;;10.73;8.97;;;;;;;10.67;100.00;94628.66;5088023;28;20656;-76
2023/05/15 00:54:31;;;;;;;11.93;9.50;;;;;;;10.68;100.00;94622.44;5088304;28;20682;-76
2023/05/15 00:57:00;;;;;;;13.40;9.43;;;;;;;10.73;100.00;94630.41;5088241;28;20281;-76
2023/05/15 00:59:30;;;;;;;15.77;9.97;;;;;;;10.77;100.00;94623.72;5088026;28;20287;-76
2023/05/15 01:01:57;;;;;;;12.53;9.37;;;;;;;10.77;100.00;94639.31;5088520;28;20278;-76
2023/05/15 01:04:24;;;;;;;13.73;9.93;;;;;;;10.85;100.00;94630.44;5087674;28;20228;-75
2023/05/15 01:06:52;;;;;;;14.17;9.70;;;;;;;10.84;100.00;94627.03;5088611;28;20259;-75
2023/05/15 01:09:20;;;;;;;14.40;10.67;;;;;;;10.93;100.00;94624.94;5088640;28;20582;-75
2023/05/15 01:11:51;;;;;;;14.93;10.20;;;;;;;10.97;100.00;94633.84;5087825;28;20687;-76
2023/05/15 01:14:19;;;;;;;18.40;10.73;;;;;;;10.97;100.00;94619.06;5088121;28;20281;-79
2023/05/15 01:16:46;;;;;;;16.43;10.80;;;;;;;10.96;100.00;94612.28;5088960;28;20211;-79
2023/05/15 01:19:12;;;;;;;16.40;11.10;;;;;;;10.98;100.00;94607.66;5088647;28;20208;-79
2023/05/15 01:22:08;;;;;;;18.53;11.63;;;;;;;11.06;100.00;94604.72;5088354;28;20217;-80
2023/05/15 01:24:54;;;;;;;17.73;10.93;;;;;;;11.06;100.00;94609.94;5085705;28;20215;-80
2023/05/15 01:27:30;;;;;;;20.23;11.47;;;;;;;10.96;100.00;94585.50;5087473;28;20201;-77
2023/05/15 01:30:05;;;;;;;18.13;11.67;;;;;;;10.97;100.00;94574.84;5087631;28;20212;-76
2023/05/15 01:32:37;;;;;;;70.83;58.33;;;;;;;11.04;100.00;94591.16;5088490;28;20202;-79
2023/05/15 01:35:12;;;;;;;23.00;13.27;;;;;;;11.00;100.00;94591.81;5088841;28;20710;-79
2023/05/15 01:37:44;;;;;;;17.93;11.60;;;;;;;11.00;100.00;94595.22;5085243;28;20568;-79
2023/05/15 01:40:13;;;;;;;17.53;11.50;;;;;;;10.99;100.00;94590.25;5088775;28;20196;-79
2023/05/15 01:42:53;;;;;;;15.70;11.30;;;;;;;10.82;100.00;94583.06;5088408;28;20681;-78
2023/05/15 01:45:21;;;;;;;17.50;11.43;;;;;;;10.50;100.00;94575.72;5088515;28;20196;-77
2023/05/15 01:47:49;;;;;;;19.83;12.40;;;;;;;9.83;100.00;94576.63;5087921;28;20205;-77
2023/05/15 01:50:18;;;;;;;19.80;12.87;;;;;;;9.89;100.00;94579.16;5088114;28;20662;-77
2023/05/15 01:52:48;;;;;;;23.70;12.70;;;;;;;9.86;100.00;94573.59;5088159;28;20205;-77
2023/05/15 01:55:16;;;;;;;20.00;12.47;;;;;;;9.83;100.00;94584.41;5088721;28;20196;-77
2023/05/15 01:57:47;;;;;;;17.80;12.13;;;;;;;9.87;100.00;94577.78;5087765;28;20633;-78
2023/05/15 02:00:15;;;;;;;19.63;12.53;;;;;;;9.82;100.00;94578.41;5087996;28;20295;-77
2023/05/15 02:02:42;;;;;;;22.43;13.50;;;;;;;9.77;100.00;94582.66;5088192;28;20270;-77
2023/05/15 02:05:09;;;;;;;20.57;12.67;;;;;;;9.80;100.00;94585.63;5087870;28;20665;-78
2023/05/15 02:07:37;;;;;;;20.93;13.67;;;;;;;9.88;100.00;94587.16;5087913;28;20276;-76
2023/05/15 02:10:05;;;;;;;20.00;13.33;;;;;;;9.91;100.00;94597.91;5089239;28;20203;-76
2023/05/15 02:12:34;;;;;;;20.83;13.57;;;;;;;10.01;100.00;94592.22;5092020;28;20731;-77
2023/05/15 02:15:03;;;;;;;29.07;19.73;;;;;;;10.12;100.00;94594.09;5092796;28;20319;-78
2023/05/15 02:17:30;;;;;;;28.37;20.97;;;;;;;10.18;100.00;94575.09;5091773;28;20219;-78
2023/05/15 02:19:56;;;;;;;29.33;19.63;;;;;;;10.26;100.00;94574.78;5092242;28;20208;-76
2023/05/15 02:22:23;;;;;;;28.93;19.40;;;;;;;10.34;100.00;94581.47;5091474;28;20228;-76
2023/05/15 02:24:50;;;;;;;29.57;18.93;;;;;;;10.35;100.00;94585.69;5091765;28;20730;-76
2023/05/15 02:27:22;;;;;;;34.30;22.63;;;;;;;10.43;100.00;94569.78;5091984;28;20238;-76
2023/05/15 02:30:03;;;;;;;25.80;17.57;;;;;;;10.32;100.00;94560.94;5091528;28;20208;-75
2023/05/15 02:32:40;;;;;;;28.20;18.93;;;;;;;10.44;100.00;94555.81;5090851;28;20627;-75
2023/05/15 02:35:17;;;;;;;25.47;17.80;;;;;;;10.48;100.00;94547.34;5087351;28;20208;-75
2023/05/15 02:37:48;;;;;;;25.20;17.73;;;;;;;10.59;100.00;94562.19;5089175;28;20601;-76
2023/05/15 02:40:16;;;;;;;20.97;15.23;;;;;;;10.61;100.00;94559.38;5091754;28;20219;-75
2023/05/15 02:42:46;;;;;;;18.93;13.83;;;;;;;10.59;100.00;94569.97;5091341;28;20240;-75
2023/05/15 02:45:13;;;;;;;22.07;13.43;;;;;;;10.43;100.00;94564.59;5091390;28;20200;-76
2023/05/15 02:47:42;;;;;;;19.30;14.67;;;;;;;10.50;100.00;94583.50;5091086;28;20197;-76
2023/05/15 02:50:10;;;;;;;21.80;14.40;;;;;;;10.54;100.00;94575.03;5090991;28;20291;-76
2023/05/15 02:52:37;;;;;;;22.17;14.70;;;;;;;10.52;100.00;94558.09;5091254;28;20607;-76
2023/05/15 02:55:05;;;;;;;21.40;15.43;;;;;;;10.58;100.00;94547.63;5088713;28;20671;-78
2023/05/15 02:57:31;;;;;;;21.03;15.07;;;;;;;10.55;100.00;94552.44;5091499;28;20489;-77
2023/05/15 02:59:58;;;;;;;22.17;14.87;;;;;;;10.55;100.00;94549.84;5091054;28;20217;-77
2023/05/15 03:02:25;;;;;;;20.00;14.73;;;;;;;10.56;100.00;94556.66;5090837;28;20240;-76
2023/05/15 03:04:53;;;;;;;20.77;15.07;;;;;;;10.47;100.00;94557.97;5090627;28;20236;-76
2023/05/15 03:07:20;;;;;;;20.17;15.50;;;;;;;9.88;100.00;94567.19;5091062;28;20205;-76
2023/05/15 03:09:47;;;;;;;28.00;18.10;;;;;;;9.49;100.00;94563.19;5090375;28;20604;-76
2023/05/15 03:12:14;;;;;;;28.43;18.17;;;;;;;9.59;100.00;94575.66;5091083;28;20283;-76
2023/05/15 03:14:40;;;;;;;28.63;20.80;;;;;;;9.68;100.00;94564.00;5090527;28;20204;-76
2023/05/15 03:17:07;;;;;;;31.40;19.87;;;;;;;9.85;100.00;94569.41;5090551;28;20320;-76
2023/05/15 03:19:34;;;;;;;29.50;19.87;;;;;;;-143.21;100.00;72688.94;5090697;28;20204;-77
2023/05/15 03:22:02;;;;;;;28.07;19.33;;;;;;;-143.21;100.00;72692.91;5089919;28;20258;-76
2023/05/15 03:24:29;;;;;;;29.77;20.47;;;;;;;-143.21;100.00;72683.00;5090258;28;20266;-76
2023/05/15 03:26:55;;;;;;;31.43;19.60;;;;;;;-143.21;100.00;72681.03;5090499;28;20211;-77
2023/05/15 03:29:22;;;;;;;28.90;19.77;;;;;;;-143.21;100.00;72677.06;5090038;28;20249;-77
2023/05/15 03:31:49;;;;;;;28.00;19.60;;;;;;;-143.21;100.00;72651.28;5089569;28;20205;-76
2023/05/15 03:34:16;;;;;;;27.20;18.80;;;;;;;-143.21;100.00;72629.44;5089793;28;20200;-76
2023/05/15 03:36:42;;;;;;;29.23;20.40;;;;;;;-143.21;100.00;72613.59;5090043;28;20212;-76
2023/05/15 03:39:11;;;;;;;30.70;20.93;;;;;;;-143.21;100.00;72607.63;5089806;28;20205;-79
2023/05/15 03:41:37;;;;;;;35.20;25.07;;;;;;;-143.21;100.00;72609.63;5089504;28;20205;-75
2023/05/15 03:44:04;;;;;;;40.67;25.53;;;;;;;-143.21;100.00;72593.75;5086097;28;20597;-75
2023/05/15 03:46:31;;;;;;;35.63;24.97;;;;;;;-143.21;100.00;72585.81;5088903;28;20274;-75
2023/05/15 03:48:58;;;;;;;36.83;24.40;;;;;;;-143.21;100.00;72585.81;5089548;28;20212;-76
2023/05/15 03:51:25;;;;;;;34.13;23.87;;;;;;;-143.21;100.00;72587.81;5089741;28;20758;-76
2023/05/15 03:53:52;;;;;;;38.23;23.43;;;;;;;-143.21;100.00;72581.84;5089196;28;20212;-76
2023/05/15 03:56:20;;;;;;;34.83;22.73;;;;;;;-143.21;100.00;72565.97;5089035;28;20200;-76
2023/05/15 03:58:47;;;;;;;33.37;22.17;;;;;;;-143.21;100.00;72554.09;5089329;28;20721;-76
2023/05/15 04:01:14;;;;;;;35.87;22.03;;;;;;;-143.21;100.00;72552.09;5089750;28;20201;-76
2023/05/15 04:03:41;;;;;;;30.40;21.50;;;;;;;-143.21;100.00;72550.13;5088841;28;20232;-76
2023/05/15 04:06:07;;;;;;;27.70;19.47;;;;;;;-143.21;100.00;72544.16;5089408;28;20244;-75
2023/05/15 04:08:34;;;;;;;26.23;17.83;;;;;;;-143.21;100.00;72538.22;5086723;28;20212;-75
2023/05/15 04:11:01;;;;;;;23.70;16.97;;;;;;;-143.21;100.00;72532.28;5089407;28;20270;-76
2023/05/15 04:13:29;;;;;;;26.37;19.47;;;;;;;-143.21;100.00;72540.19;5089530;28;20236;-76
2023/05/15 04:15:58;;;;;;;32.20;23.03;;;;;;;-143.21;100.00;72546.16;5089123;28;20731;-76
2023/05/15 04:18:25;;;;;;;24.97;17.90;;;;;;;-143.21;100.00;72540.19;5088722;28;20205;-76
2023/05/15 04:20:52;;;;;;;23.67;16.87;;;;;;;-143.21;100.00;72544.16;5088996;28;20211;-76
2023/05/15 04:23:19;;;;;;;27.80;18.20;;;;;;;-143.21;100.00;72538.22;5088459;28;20248;-76
2023/05/15 04:25:47;;;;;;;28.10;19.63;;;;;;;-143.21;100.00;72562.03;5088932;28;20200;-75
2023/05/15 04:28:14;;;;;;;26.60;19.73;;;;;;;-143.21;100.00;72635.41;5088787;28;20200;-75
2023/05/15 04:30:42;;;;;;;29.80;20.20;;;;;;;-143.21;100.00;72657.22;5088970;28;20681;-78
2023/05/15 04:33:09;;;;;;;29.03;20.87;;;;;;;-143.21;100.00;72663.16;5088797;28;20197;-77
2023/05/15 04:35:36;;;;;;;34.03;23.63;;;;;;;-143.21;100.00;72659.19;5088918;28;20223;-78
2023/05/15 04:38:03;;;;;;;35.03;24.67;;;;;;;-143.21;100.00;72651.28;5088629;28;20209;-78
2023/05/15 04:40:30;;;;;;;42.57;24.70;;;;;;;-143.21;100.00;72633.41;5088518;28;20733;-77
2023/05/15 04:42:57;;;;;;;37.90;25.97;;;;;;;-143.21;100.00;72607.63;5088235;28;20236;-77
2023/05/15 04:45:24;;;;;;;33.17;23.33;;;;;;;-143.21;100.00;72587.81;5087777;28;20319;-77
2023/05/15 04:47:52;;;;;;;34.83;23.30;;;;;;;-143.21;100.00;72583.84;5086944;28;20601;-78
2023/05/15 04:50:19;;;;;;;30.43;21.07;;;;;;;-143.21;100.00;72579.88;5087621;28;20200;-77
2023/05/15 04:52:46;;;;;;;26.43;18.50;;;;;;;-143.21;100.00;72562.03;5087759;28;20692;-77
2023/05/15 04:55:12;;;;;;;26.07;18.03;;;;;;;-143.21;100.00;72556.06;5087185;28;20201;-77
2023/05/15 04:57:39;;;;;;;24.97;17.13;;;;;;;-143.21;100.00;72544.16;5087938;28;20266;-76
2023/05/15 05:00:11;;;;;;;27.23;18.07;;;;;;;-143.21;100.00;72530.28;5088395;28;20298;-77
2023/05/15 05:02:48;;;;;;;23.90;17.57;;;;;;;-143.21;100.00;72516.41;5082066;28;20308;-78
2023/05/15 05:05:16;;;;;;;27.47;18.57;;;;;;;-143.21;100.00;72498.56;5093259;28;20232;-77
2023/05/15 05:07:45;;;;;;;24.10;17.53;;;;;;;-143.21;100.00;72486.66;5087367;28;20274;-77
2023/05/15 05:10:14;;;;;;;21.93;15.97;;;;;;;-143.21;100.00;72470.78;5087741;28;20664;-77
2023/05/15 05:12:41;;;;;;;24.90;15.43;;;;;;;-143.21;100.00;72470.78;5088035;28;20200;-78
2023/05/15 05:15:09;;;;;;;22.00;15.20;;;;;;;-143.21;100.00;72468.81;5088929;28;20207;-78
2023/05/15 05:17:36;;;;;;;22.63;14.87;;;;;;;-143.21;100.00;72490.63;5084198;28;20639;-78
2023/05/15 05:20:07;;;;;;;20.03;14.47;;;;;;;-143.21;100.00;72472.78;5088378;28;20201;-78
2023/05/15 05:22:35;;;;;;;19.33;14.30;;;;;;;-143.21;100.00;72456.91;5084882;28;20216;-77
2023/05/15 05:25:02;;;;;;;23.13;14.93;;;;;;;-143.21;100.00;72460.88;5088641;28;20666;-77
2023/05/15 05:27:29;;;;;;;20.60;14.33;;;;;;;-143.21;100.00;72456.91;5088620;28;20204;-80
2023/05/15 05:29:56;;;;;;;20.70;15.43;;;;;;;-143.21;100.00;72460.88;5088512;28;20213;-77
2023/05/15 05:32:26;;;;;;;19.77;14.77;;;;;;;-143.21;100.00;72458.88;5088474;28;20703;-78
2023/05/15 05:34:52;;;;;;;17.47;13.17;;;;;;;-143.21;100.00;72480.72;5089074;28;20204;-77
2023/05/15 05:37:22;;;;;;;20.20;14.30;;;;;;;-143.21;100.00;72506.50;5089015;28;20197;-78
2023/05/15 05:39:50;;;;;;;21.13;15.30;;;;;;;-143.21;100.00;72498.56;5088204;28;20196;-78
2023/05/15 05:42:17;;;;;;;21.80;14.87;;;;;;;-143.21;100.00;72500.53;5089364;28;20203;-78
2023/05/15 05:44:44;;;;;;;21.30;15.30;;;;;;;-143.21;100.00;72514.41;5088118;28;20221;-78
2023/05/15 05:47:11;;;;;;;21.07;15.73;;;;;;;-143.21;100.00;72518.38;5087580;28;20201;-78
2023/05/15 05:49:38;;;;;;;25.63;16.03;;;;;;;-143.21;100.00;72498.56;5087385;28;20196;-78
2023/05/15 05:52:07;;;;;;;23.60;15.70;;;;;;;-143.21;100.00;72470.78;5088358;28;21511;-78
2023/05/15 05:54:34;;;;;;;24.03;15.67;;;;;;;-143.21;100.00;72445.00;5084627;28;20293;-78
2023/05/15 05:57:02;;;;;;;25.07;15.27;;;;;;;-143.21;100.00;72421.22;5087840;28;20193;-78
2023/05/15 05:59:35;;;;;;;22.17;16.53;;;;;;;-143.21;100.00;72409.31;5088073;28;20214;-78
2023/05/15 06:02:02;;;;;;;22.77;16.40;;;;;;;-143.21;100.00;72385.50;5087494;28;20235;-79
2023/05/15 06:04:32;;;;;;;23.33;15.63;;;;;;;-143.21;100.00;72373.63;5087738;28;20232;-79
2023/05/15 06:06:59;;;;;;;23.37;15.47;;;;;;;-143.21;100.00;72357.75;5087833;28;20295;-79
2023/05/15 06:09:29;;;;;;;20.37;14.37;;;;;;;-143.21;100.00;72345.84;5087712;28;20243;-77
2023/05/15 06:11:56;;;;;;;19.77;14.53;;;;;;;-143.21;100.00;72328.00;5087555;28;20205;-78
2023/05/15 06:14:30;;;;;;;24.13;14.73;;;;;;;-143.21;100.00;72306.19;5088363;28;20199;-76
2023/05/15 06:16:57;;;;;;;23.30;14.20;;;;;;;-143.21;99.29;72294.28;5087086;28;20212;-76
2023/05/15 06:19:24;;;;;;;21.27;13.83;;;;;;;-143.21;99.29;72296.28;5086695;28;20700;-76
2023/05/15 06:21:51;;;;;;;19.47;14.00;;;;;;;-143.21;99.29;72284.38;5089770;28;20693;-76
2023/05/15 06:24:18;;;;;;;20.80;14.20;;;;;;;-143.21;99.11;72286.34;5085292;28;20686;-76
2023/05/15 06:26:45;;;;;;;23.00;13.77;;;;;;;-143.21;98.91;72276.44;5083246;28;20204;-76
2023/05/15 06:29:12;;;;;;;20.93;14.03;;;;;;;-143.21;98.42;72270.50;5081111;28;20204;-76
2023/05/15 06:31:40;;;;;;;21.70;14.37;;;;;;;-143.21;98.09;72244.72;5078608;28;20201;-76
2023/05/15 06:34:07;;;;;;;22.03;14.20;;;;;;;-143.21;97.41;72236.78;5077231;28;20193;-76
2023/05/15 06:36:34;;;;;;;23.53;15.17;;;;;;;-143.21;97.22;72220.91;5086164;28;20645;-77
2023/05/15 06:39:01;;;;;;;23.57;14.23;;;;;;;-143.21;96.11;72218.94;5085689;28;20204;-77
2023/05/15 06:41:27;;;;;;;23.17;14.90;;;;;;;-143.21;95.40;72258.59;5085103;28;20748;-77
2023/05/15 06:43:54;;;;;;;22.50;13.87;;;;;;;-143.21;94.35;72304.19;5084454;28;20722;-76
2023/05/15 06:46:21;;;;;;;26.40;16.43;;;;;;;-143.21;97.47;72333.94;5086040;28;20236;-75
2023/05/15 06:48:49;;;;;;;27.27;16.10;;;;;;;-143.21;97.93;72322.06;5085840;28;20205;-76
2023/05/15 06:51:16;;;;;;;25.73;16.10;;;;;;;-143.21;98.30;72304.19;5086528;28;20233;-76
2023/05/15 06:53:43;;;;;;;25.33;17.53;;;;;;;-143.21;98.11;72282.38;5086099;28;20197;-76
2023/05/15 06:56:10;;;;;;;24.70;16.97;;;;;;;-143.21;97.91;72266.53;5087201;28;20204;-76
2023/05/15 06:58:36;;;;;;;27.07;15.70;;;;;;;-143.21;97.43;72250.66;5090324;28;20586;-76
2023/05/15 07:01:05;;;;;;;24.13;15.73;;;;;;;-143.21;96.39;72240.75;5090776;28;20201;-76
2023/05/15 07:03:32;;;;;;;25.80;15.63;;;;;;;-143.21;95.32;72246.69;5089786;28;20221;-76
2023/05/15 07:06:00;;;;;;;27.20;15.37;;;;;;;-143.21;96.28;72256.59;5088599;28;20244;-75
2023/05/15 07:08:27;;;;;;;25.47;16.10;;;;;;;-143.21;97.77;72256.59;5088956;28;20204;-76
2023/05/15 07:10:53;;;;;;;24.77;15.20;;;;;;;-143.21;97.32;72232.81;5088718;28;20200;-75
2023/05/15 07:13:21;;;;;;;21.33;13.90;;;;;;;-143.21;96.62;72211.00;5088831;28;20193;-75
2023/05/15 07:15:47;;;;;;;20.90;13.90;;;;;;;-143.21;96.35;72185.22;5089189;28;20205;-76
2023/05/15 07:18:15;;;;;;;24.13;13.73;;;;;;;-143.21;94.95;72163.41;5088694;28;20203;-76
2023/05/15 07:21:08;;;;;;;20.57;13.37;;;;;;;-143.21;93.06;72147.53;5089470;28;20211;-80
2023/05/15 07:23:36;;;;;;;23.03;12.77;;;;;;;-143.21;91.36;72133.66;5084005;28;20221;-77
2023/05/15 07:26:03;;;;;;;20.43;12.80;;;;;;;-143.21;89.74;72127.72;5090999;28;20246;-76
2023/05/15 07:28:30;;;;;;;20.27;13.07;;;;;;;-143.21;89.22;72119.78;5090216;28;20197;-77
2023/05/15 07:30:57;;;;;;;22.17;12.63;;;;;;;-143.21;88.42;72125.72;5090460;28;20262;-78
2023/05/15 07:33:23;;;;;;;23.03;13.03;;;;;;;-143.21;88.14;72117.78;5090222;28;20243;-77
2023/05/15 07:35:50;;;;;;;21.80;14.30;;;;;;;-143.21;88.38;72099.94;5090113;28;20209;-75
2023/05/15 07:38:17;;;;;;;21.97;14.13;;;;;;;-143.21;87.64;72097.97;5089729;28;20196;-76
2023/05/15 07:40:45;;;;;;;21.03;12.93;;;;;;;-143.21;87.91;72090.03;5089820;28;20204;-77
2023/05/15 07:43:12;;;;;;;20.53;13.00;;;;;;;-143.21;87.18;72080.13;5089555;28;20274;-76
2023/05/15 07:45:39;;;;;;;22.83;13.97;;;;;;;-143.21;86.40;72064.25;5089385;28;20678;-76
2023/05/15 07:48:15;;;;;;;21.70;13.73;;;;;;;-143.21;87.31;72062.25;5089548;28;20212;-76
2023/05/15 07:50:43;;;;;;;20.60;13.93;;;;;;;-143.21;87.15;72097.97;5088813;28;20204;-77
2023/05/15 07:53:10;;;;;;;18.80;13.07;;;;;;;-143.21;87.24;72149.53;5089615;28;20200;-78
2023/05/15 07:55:36;;;;;;;25.30;14.27;;;;;;;-143.21;90.16;72177.28;5085839;28;20216;-77
2023/05/15 07:58:05;;;;;;;28.50;15.13;;;;;;;-143.21;90.89;72187.19;5089737;28;20706;-77
2023/05/15 08:00:31;;;;;;;24.20;14.37;;;;;;;-143.21;90.28;72179.25;5087439;28;20201;-77
2023/05/15 08:02:59;;;;;;;28.27;14.90;;;;;;;-143.21;90.08;72169.34;5090593;28;20231;-78
2023/05/15 08:05:26;;;;;;;24.33;14.80;;;;;;;-143.21;89.99;72149.53;5088573;28;20232;-78
2023/05/15 08:07:52;;;;;;;22.80;14.60;;;;;;;-143.21;91.00;72143.56;5086899;28;20250;-78
2023/05/15 08:10:19;;;;;;;23.30;14.40;;;;;;;-143.21;88.96;72175.31;5087779;28;20204;-76
2023/05/15 08:13:05;;;;;;;24.17;14.50;;;;;;;-143.21;90.24;72209.00;5088547;28;20207;-77
2023/05/15 08:15:36;;;;;;;24.27;16.30;;;;;;;-143.21;93.03;72205.03;5088590;28;20382;-76
2023/05/15 08:18:10;;;;;;;27.10;14.97;;;;;;;-143.21;92.37;72199.09;5088447;28;20232;-77
2023/05/15 08:20:37;;;;;;;26.13;15.30;;;;;;;-143.21;91.16;72185.22;5084644;28;20193;-76
2023/05/15 08:23:04;;;;;;;26.10;16.23;;;;;;;-143.21;90.64;72177.28;5085667;28;20200;-77
2023/05/15 08:25:37;;;;;;;26.70;17.93;;;;;;;-143.21;90.65;72159.44;5088417;28;20221;-77
2023/05/15 08:28:05;;;;;;;24.23;16.33;;;;;;;-143.21;90.04;72139.59;5085208;28;20196;-76
2023/05/15 08:30:31;;;;;;;27.47;16.13;;;;;;;-143.21;89.79;72127.72;5086758;28;20203;-76
2023/05/15 08:33:00;;;;;;;25.70;16.10;;;;;;;-143.21;89.06;72125.72;5089796;28;20193;-78
2023/05/15 08:35:28;;;;;;;26.90;16.60;;;;;;;-143.21;88.36;72107.88;5091408;28;20240;-78
2023/05/15 08:37:55;;;;;;;36.73;17.90;;;;;;;-143.21;86.68;72109.84;5091101;28;20196;-79
2023/05/15 08:40:22;;;;;;;30.00;16.83;;;;;;;-143.21;87.07;72099.94;5090950;28;20197;-78
2023/05/15 08:42:55;;;;;;;26.80;17.30;;;;;;;-143.21;87.49;72088.03;5090731;28;20189;-78
2023/05/15 08:45:22;;;;;;;25.07;16.43;;;;;;;-143.21;86.77;72072.19;5090381;28;20684;-78
2023/05/15 08:47:49;;;;;;;23.90;16.30;;;;;;;-143.21;86.36;72066.22;5090925;28;20242;-78
2023/05/15 08:50:18;;;;;;;29.33;18.33;;;;;;;-143.21;86.27;72052.34;5090378;28;20208;-78
2023/05/15 08:52:46;;;;;;;25.80;17.03;;;;;;;-143.21;84.88;72040.44;5088839;28;20679;-78
2023/05/15 08:55:14;;;;;;;29.57;18.77;;;;;;;-143.21;83.83;72030.53;5090018;28;20897;-78
2023/05/15 08:57:45;;;;;;;41.10;23.53;;;;;;;-143.21;84.13;72032.53;5090475;28;20212;-76
2023/05/15 09:00:13;;;;;;;41.50;22.40;;;;;;;-143.21;83.54;72038.47;5089462;28;20197;-77
2023/05/15 09:02:43;;;;;;;43.53;24.47;;;;;;;-143.21;84.06;72054.34;5090247;28;20228;-77
2023/05/15 09:05:30;;;;;;;38.23;22.97;;;;;;;-143.21;85.24;72097.97;5089530;28;20260;-76
2023/05/15 09:08:07;;;;;;;42.63;25.90;;;;;;;-143.21;88.40;72115.81;5098473;28;20204;-77
2023/05/15 09:10:35;;;;;;;37.80;22.37;;;;;;;-143.21;89.23;72115.81;5093732;28;20674;-77
2023/05/15 09:13:03;;;;;;;57.03;31.80;;;;;;;-143.21;89.55;72097.97;5102840;28;20225;-77
2023/05/15 09:15:30;;;;;;;40.67;23.37;;;;;;;-143.21;89.82;72086.06;5099191;28;20193;-78
2023/05/15 09:17:58;;;;;;;24.93;16.83;;;;;;;-143.21;89.32;72103.91;5090488;28;20307;-79
2023/05/15 09:20:28;;;;;;;28.53;16.63;;;;;;;-143.21;89.96;72127.72;5090620;28;20195;-79
2023/05/15 09:22:55;;;;;;;25.57;17.57;;;;;;;-143.21;92.91;72153.47;5091261;28;20254;-79
2023/05/15 09:25:33;;;;;;;29.83;17.97;;;;;;;-143.21;93.52;72135.63;5090927;28;20220;-79
2023/05/15 09:28:00;;;;;;;49.67;22.93;;;;;;;-143.21;92.83;72111.84;5090851;28;20216;-79
2023/05/15 09:30:27;;;;;;;31.07;18.13;;;;;;;-143.21;90.67;72094.00;5091471;28;20207;-79
2023/05/15 09:32:54;;;;;;;25.73;16.30;;;;;;;-143.21;89.59;72066.22;5090858;28;20196;-79
2023/05/15 09:35:36;;;;;;;28.30;16.63;;;;;;;-143.21;87.70;72038.47;5091194;28;20295;-79
2023/05/15 09:38:08;;;;;;;22.47;15.63;;;;;;;-143.21;86.85;72022.59;5092560;28;20188;-79
2023/05/15 09:40:35;;;;;;;25.00;15.40;;;;;;;-143.21;86.09;72010.72;5090955;28;20196;-79
2023/05/15 09:43:02;;;;;;;23.60;15.63;;;;;;;-143.21;85.69;71982.94;5090788;28;20211;-80
2023/05/15 09:45:30;;;;;;;21.20;15.50;;;;;;;-143.21;84.73;71990.88;5090218;28;20231;-78
2023/05/15 09:47:59;;;;;;;23.57;16.50;;;;;;;-143.21;83.83;71978.97;5090824;28;20611;-80
2023/05/15 09:50:39;;;;;;;23.00;14.80;;;;;;;-143.21;82.81;71973.03;5087664;28;20224;-79
2023/05/15 09:53:06;;;;;;;25.13;15.10;;;;;;;-143.21;82.88;71963.13;5088914;28;20279;-79
2023/05/15 09:55:35;;;;;;;23.93;14.97;;;;;;;-143.21;82.92;71963.13;5090918;28;20200;-80
2023/05/15 09:58:07;;;;;;;21.03;14.97;;;;;;;-143.21;80.49;71955.19;5090308;28;20201;-80
2023/05/15 10:00:35;;;;;;;21.60;14.23;;;;;;;-143.21;81.95;71949.25;5090235;28;20200;-80
2023/05/15 10:03:06;;;;;;;24.00;15.73;;;;;;;-143.21;81.89;71941.31;5090344;28;20204;-80
2023/05/15 10:05:34;;;;;;;22.27;14.17;;;;;;;-143.21;81.71;71941.31;5082999;28;20308;-80
2023/05/15 10:08:04;;;;;;;19.67;14.40;;;;;;;-143.21;82.44;71969.06;5070329;28;20292;-80
2023/05/15 10:10:32;;;;;;;24.60;13.67;;;;;;;-143.21;83.23;72006.75;5072058;28;20203;-82
2023/05/15 10:13:03;;;;;;;21.53;14.53;;;;;;;-143.21;85.96;72014.69;5073402;28;20213;-79
2023/05/15 10:15:30;;;;;;;22.67;13.57;;;;;;;-143.21;85.83;72004.75;5070473;28;20194;-79
2023/05/15 10:17:58;;;;;;;22.23;13.97;;;;;;;-143.21;85.78;72004.75;5069815;28;20206;-80
2023/05/15 10:20:26;;;;;;;17.83;12.83;;;;;;;-143.21;85.04;71984.94;5069475;28;20244;-80
2023/05/15 10:22:56;;;;;;;22.23;13.50;;;;;;;-143.21;82.75;71980.97;5068859;28;20568;-80
2023/05/15 10:25:33;;;;;;;22.77;14.07;;;;;;;-143.21;83.20;71967.09;5073998;28;20197;-80
2023/05/15 10:28:03;;;;;;;21.20;14.63;;;;;;;-143.21;84.17;71971.06;5090756;28;20184;-79
2023/05/15 10:30:39;;;;;;;20.53;13.77;;;;;;;-143.21;84.10;72010.72;5084680;28;20280;-80
2023/05/15 10:33:07;;;;;;;29.73;18.20;;;;;;;-143.21;86.06;72070.19;5072453;28;20266;-80
2023/05/15 10:35:35;;;;;;;22.43;15.27;;;;;;;-143.21;89.13;72082.09;5079306;28;20192;-83
2023/05/15 10:38:05;;;;;;;18.33;13.17;;;;;;;-143.21;87.56;72066.22;5094593;28;20193;-80
2023/05/15 10:40:36;;;;;;;24.20;12.93;;;;;;;-143.21;86.98;72048.38;5094905;28;20197;-80
2023/05/15 10:43:03;;;;;;;19.37;13.40;;;;;;;-143.21;85.40;72024.59;5094803;28;20185;-80
2023/05/15 10:45:31;;;;;;;21.63;13.17;;;;;;;-143.21;84.57;71998.81;5090384;28;20209;-80
2023/05/15 10:47:59;;;;;;;21.50;13.33;;;;;;;-143.21;83.75;71990.88;5074103;28;20201;-80
2023/05/15 10:50:27;;;;;;;21.03;12.70;;;;;;;-143.21;83.52;71971.06;5075071;28;20200;-80
2023/05/15 10:52:55;;;;;;;18.67;12.57;;;;;;;-143.21;83.74;71955.19;5072423;28;20243;-81
2023/05/15 10:55:24;;;;;;;25.03;14.07;;;;;;;-143.21;83.80;71939.31;5085223;28;20280;-80
2023/05/15 10:57:50;;;;;;;24.07;14.00;;;;;;;-143.21;84.15;71937.34;5094318;28;20197;-81
2023/05/15 11:00:30;;;;;;;23.10;13.70;;;;;;;-143.21;84.37;71927.44;5083964;28;20284;-80
2023/05/15 11:02:57;;;;;;;17.90;12.67;;;;;;;-143.21;83.46;71913.53;5073616;28;20197;-80
2023/05/15 11:05:25;;;;;;;17.00;12.37;;;;;;;-143.21;81.91;71903.63;5087087;28;20673;-82
2023/05/15 11:08:26;;;;;;;18.60;13.00;;;;;;;-143.21;81.06;71909.56;5093221;28;20197;-79